Time;durP1;ratioP1;P1;durP2;ratioP2;P2;SDS_P1;SDS_P2;PMS_P1;PMS_P2;Temp;Humidity;BMP_temperature;BMP_pressure;BME280_temperature;BME280_humidity;BME280_pressure;Samples;Min_cycle;Max_cycle;Signal;HPM_P1;HPM_P2
2022/08/10 00:00:57;;;;;;;1.30;1.20;;;;;;;;;;5121618;28;20231;-60
2022/08/10 00:03:25;;;;;;;1.53;1.00;;;;;;;;;;5121658;28;20229;-60
2022/08/10 00:05:55;;;;;;;1.70;1.43;;;;;;;;;;5121500;27;20638;-60
2022/08/10 00:08:24;;;;;;;1.63;1.20;;;;;;;;;;5121856;28;20269;-60
2022/08/10 00:10:53;;;;;;;1.43;1.10;;;;;;;;;;5121500;28;20213;-60
2022/08/10 00:13:21;;;;;;;1.73;1.40;;;;;;;;;;5119336;28;20660;-60
2022/08/10 00:15:49;;;;;;;1.30;1.20;;;;;;;;;;5115628;28;20211;-60
2022/08/10 00:18:22;;;;;;;3.67;1.30;;;;;;;;;;5116397;28;20209;-60
2022/08/10 00:21:03;;;;;;;1.63;1.33;;;;;;;;;;5119609;28;20228;-60
2022/08/10 00:23:31;;;;;;;1.77;1.40;;;;;;;;;;5113631;28;20250;-60
2022/08/10 00:25:59;;;;;;;1.53;1.43;;;;;;;;;;5098552;28;20206;-60
2022/08/10 00:28:27;;;;;;;1.33;1.23;;;;;;;;;;5108871;28;20207;-60
2022/08/10 00:30:55;;;;;;;2.33;1.23;;;;;;;;;;5121135;28;20613;-60
2022/08/10 00:33:24;;;;;;;3.10;1.40;;;;;;;;;;5121046;28;20663;-60
2022/08/10 00:35:52;;;;;;;1.47;1.37;;;;;;;;;;5121217;28;20240;-59
2022/08/10 00:38:20;;;;;;;2.77;1.30;;;;;;;;;;5111873;28;20267;-60
2022/08/10 00:40:48;;;;;;;1.33;1.30;;;;;;;;;;5100184;28;20656;-60
2022/08/10 00:43:16;;;;;;;2.30;1.40;;;;;;;;;;5100555;28;20233;-60
2022/08/10 00:45:51;;;;;;;3.17;1.50;;;;;;;;;;5100604;28;20210;-60
2022/08/10 00:48:29;;;;;;;1.67;1.30;;;;;;;;;;5100688;28;20212;-60
2022/08/10 00:50:57;;;;;;;2.80;1.53;;;;;;;;;;5100130;28;20238;-59
2022/08/10 00:53:26;;;;;;;1.43;1.33;;;;;;;;;;5099259;28;20724;-60
2022/08/10 00:55:54;;;;;;;1.53;1.43;;;;;;;;;;5100309;28;20207;-60
2022/08/10 00:58:42;;;;;;;1.47;1.17;;;;;;;;;;5100140;28;20206;-60
2022/08/10 01:01:10;;;;;;;3.00;1.50;;;;;;;;;;5100088;28;20246;-60
2022/08/10 01:04:01;;;;;;;1.43;1.33;;;;;;;;;;5100262;28;20242;-59
2022/08/10 01:06:53;;;;;;;1.83;1.60;;;;;;;;;;5100194;28;20208;-60
2022/08/10 01:09:26;;;;;;;1.40;1.20;;;;;;;;;;5100037;28;20269;-59
2022/08/10 01:11:57;;;;;;;1.73;1.43;;;;;;;;;;5099565;28;20581;-60
2022/08/10 01:14:48;;;;;;;1.67;1.33;;;;;;;;;;5099947;28;20234;-60
2022/08/10 01:17:17;;;;;;;3.03;1.40;;;;;;;;;;5109285;28;20731;-60
2022/08/10 01:19:54;;;;;;;1.30;1.20;;;;;;;;;;5120192;28;20216;-60
2022/08/10 01:22:31;;;;;;;1.57;1.40;;;;;;;;;;5120391;28;20320;-60
2022/08/10 01:25:15;;;;;;;1.97;1.47;;;;;;;;;;5113861;28;20258;-59
2022/08/10 01:27:51;;;;;;;2.53;1.27;;;;;;;;;;5098960;28;20264;-59
2022/08/10 01:30:22;;;;;;;2.03;1.40;;;;;;;;;;5120332;28;20207;-60
2022/08/10 01:32:51;;;;;;;1.83;1.43;;;;;;;;;;5119896;28;20205;-60
2022/08/10 01:35:22;;;;;;;2.30;1.50;;;;;;;;;;5119924;28;20702;-60
2022/08/10 01:37:54;;;;;;;1.77;1.30;;;;;;;;;;5115090;28;20214;-60
2022/08/10 01:40:24;;;;;;;2.77;1.27;;;;;;;;;;5099560;28;20216;-59
2022/08/10 01:42:54;;;;;;;1.50;1.40;;;;;;;;;;5099229;28;20224;-60
2022/08/10 01:45:28;;;;;;;2.53;1.40;;;;;;;;;;5099229;28;20215;-60
2022/08/10 01:48:30;;;;;;;2.97;1.60;;;;;;;;;;5099480;28;20291;-60
2022/08/10 01:51:03;;;;;;;1.83;1.73;;;;;;;;;;5098954;28;20267;-59
2022/08/10 01:53:34;;;;;;;1.50;1.40;;;;;;;;;;5098959;28;20251;-60
2022/08/10 01:56:09;;;;;;;2.40;1.87;;;;;;;;;;5098962;28;20209;-60
2022/08/10 01:58:38;;;;;;;1.50;1.40;;;;;;;;;;5099250;28;20236;-60
2022/08/10 02:01:09;;;;;;;1.23;1.23;;;;;;;;;;5099335;28;20245;-60
2022/08/10 02:03:44;;;;;;;3.50;1.43;;;;;;;;;;5098942;28;20231;-60
2022/08/10 02:06:33;;;;;;;1.80;1.47;;;;;;;;;;5098851;28;20294;-60
2022/08/10 02:09:02;;;;;;;1.80;1.47;;;;;;;;;;5098918;28;20663;-60
2022/08/10 02:11:33;;;;;;;1.53;1.40;;;;;;;;;;5098675;28;20216;-60
2022/08/10 02:14:22;;;;;;;1.97;1.70;;;;;;;;;;5098637;28;20229;-59
2022/08/10 02:16:52;;;;;;;2.13;1.40;;;;;;;;;;5098719;28;20220;-59
2022/08/10 02:19:22;;;;;;;1.50;1.40;;;;;;;;;;5118323;28;20207;-59
2022/08/10 02:21:51;;;;;;;2.20;1.30;;;;;;;;;;5118923;28;20206;-59
2022/08/10 02:24:40;;;;;;;2.43;1.37;;;;;;;;;;5107041;28;20236;-59
2022/08/10 02:27:09;;;;;;;1.60;1.33;;;;;;;;;;5108607;28;20703;-60
2022/08/10 02:29:38;;;;;;;1.97;1.20;;;;;;;;;;5118869;28;20208;-60
2022/08/10 02:32:11;;;;;;;5.20;1.43;;;;;;;;;;5105598;28;20198;-59
2022/08/10 02:34:50;;;;;;;3.17;1.50;;;;;;;;;;5118836;28;20759;-59
2022/08/10 02:37:21;;;;;;;4.13;1.50;;;;;;;;;;5109210;28;20203;-59
2022/08/10 02:39:49;;;;;;;2.77;1.57;;;;;;;;;;5098195;28;20641;-59
2022/08/10 02:42:21;;;;;;;1.70;1.40;;;;;;;;;;5098013;28;20230;-60
2022/08/10 02:45:12;;;;;;;1.57;1.47;;;;;;;;;;5098441;28;20222;-60
2022/08/10 02:48:00;;;;;;;3.00;1.60;;;;;;;;;;5098440;28;20206;-59
2022/08/10 02:50:29;;;;;;;1.67;1.40;;;;;;;;;;5098183;28;20239;-59
2022/08/10 02:53:00;;;;;;;2.60;1.80;;;;;;;;;;5098016;28;20204;-60
2022/08/10 02:55:31;;;;;;;1.60;1.50;;;;;;;;;;5098020;28;20210;-60
2022/08/10 02:58:03;;;;;;;2.53;1.33;;;;;;;;;;5097759;28;20692;-60
2022/08/10 03:00:47;;;;;;;2.47;1.60;;;;;;;;;;5098211;28;20222;-61
2022/08/10 03:03:19;;;;;;;3.30;1.40;;;;;;;;;;5098092;28;20236;-59
2022/08/10 03:05:48;;;;;;;2.10;1.30;;;;;;;;;;5102166;28;20203;-59
2022/08/10 03:08:18;;;;;;;2.37;1.43;;;;;;;;;;5118166;28;20207;-60
2022/08/10 03:10:47;;;;;;;2.20;1.50;;;;;;;;;;5118020;28;20199;-60
2022/08/10 03:13:15;;;;;;;1.60;1.50;;;;;;;;;;5118235;28;20248;-59
2022/08/10 03:15:45;;;;;;;1.47;1.30;;;;;;;;;;5117604;28;20228;-60
2022/08/10 03:18:13;;;;;;;1.97;1.50;;;;;;;;;;5118092;28;20610;-60
2022/08/10 03:20:43;;;;;;;1.70;1.50;;;;;;;;;;5118246;28;20194;-60
2022/08/10 03:23:13;;;;;;;1.50;1.40;;;;;;;;;;5114767;28;20258;-60
2022/08/10 03:25:42;;;;;;;4.30;1.60;;;;;;;;;;5108257;28;20201;-60
2022/08/10 03:28:21;;;;;;;1.10;1.10;;;;;;;;;;5117954;28;20200;-60
2022/08/10 03:30:49;;;;;;;3.20;1.67;;;;;;;;;;5118160;28;20201;-59
2022/08/10 03:33:18;;;;;;;2.60;1.67;;;;;;;;;;5118135;28;20224;-60
2022/08/10 03:35:47;;;;;;;1.90;1.53;;;;;;;;;;5118156;28;20209;-59
2022/08/10 03:38:36;;;;;;;1.50;1.40;;;;;;;;;;5107589;28;20207;-60
2022/08/10 03:41:05;;;;;;;3.03;1.77;;;;;;;;;;5117529;28;20206;-60
2022/08/10 03:43:33;;;;;;;1.50;1.40;;;;;;;;;;5118064;28;20229;-60
2022/08/10 03:46:03;;;;;;;2.03;1.47;;;;;;;;;;5118120;28;20204;-60
2022/08/10 03:48:32;;;;;;;1.97;1.53;;;;;;;;;;5118211;28;20234;-59
2022/08/10 03:51:18;;;;;;;1.33;1.23;;;;;;;;;;5117787;28;20241;-59
2022/08/10 03:53:47;;;;;;;2.37;1.60;;;;;;;;;;5118197;28;20249;-60
2022/08/10 03:56:34;;;;;;;1.57;1.47;;;;;;;;;;5117467;28;20214;-59
2022/08/10 03:59:02;;;;;;;3.20;1.60;;;;;;;;;;5118040;28;20205;-59
2022/08/10 04:01:30;;;;;;;1.90;1.47;;;;;;;;;;5117830;28;20205;-60
2022/08/10 04:04:18;;;;;;;1.70;1.60;;;;;;;;;;5117873;28;20231;-60
2022/08/10 04:06:53;;;;;;;3.40;1.57;;;;;;;;;;5117718;28;20575;-60
2022/08/10 04:09:22;;;;;;;1.37;1.33;;;;;;;;;;5118024;28;20211;-60
2022/08/10 04:11:50;;;;;;;2.17;1.43;;;;;;;;;;5117314;28;20203;-59
2022/08/10 04:14:18;;;;;;;1.50;1.40;;;;;;;;;;5117496;28;20222;-60
2022/08/10 04:17:06;;;;;;;1.47;1.37;;;;;;;;;;5117755;28;20298;-60
2022/08/10 04:19:42;;;;;;;1.50;1.50;;;;;;;;;;5117581;28;20210;-60
2022/08/10 04:22:16;;;;;;;4.30;1.70;;;;;;;;;;5117982;28;20202;-60
2022/08/10 04:24:45;;;;;;;1.60;1.50;;;;;;;;;;5101169;28;20231;-60
2022/08/10 04:27:13;;;;;;;2.00;1.57;;;;;;;;;;5097532;28;20265;-60
2022/08/10 04:29:41;;;;;;;1.37;1.27;;;;;;;;;;5100870;28;20242;-60
2022/08/10 04:32:09;;;;;;;3.23;1.40;;;;;;;;;;5100742;28;20239;-60
2022/08/10 04:34:38;;;;;;;1.93;1.63;;;;;;;;;;5100574;28;20789;-60
2022/08/10 04:37:07;;;;;;;349.60;204.27;;;;;;;;;;5110741;28;20236;-59
2022/08/10 04:39:37;;;;;;;5.53;4.80;;;;;;;;;;5121015;28;20214;-59
2022/08/10 04:42:06;;;;;;;2.83;2.00;;;;;;;;;;5120819;28;20206;-59
2022/08/10 04:44:34;;;;;;;1.60;1.40;;;;;;;;;;5120394;28;20283;-59
2022/08/10 04:47:02;;;;;;;2.20;1.50;;;;;;;;;;5121104;28;20238;-59
2022/08/10 04:49:31;;;;;;;1.70;1.43;;;;;;;;;;5120798;28;20202;-59
2022/08/10 04:52:19;;;;;;;2.97;2.00;;;;;;;;;;5120436;28;20568;-59
2022/08/10 04:54:48;;;;;;;1.90;1.50;;;;;;;;;;5120638;28;20747;-59
2022/08/10 04:57:16;;;;;;;6.77;1.83;;;;;;;;;;5120246;28;21596;-59
2022/08/10 04:59:44;;;;;;;2.13;1.50;;;;;;;;;;5119597;28;20619;-59
2022/08/10 05:02:12;;;;;;;1.47;1.37;;;;;;;;;;5116530;28;20198;-59
2022/08/10 05:04:58;;;;;;;2.03;1.43;;;;;;;;;;5116775;28;20587;-59
2022/08/10 05:07:26;;;;;;;1.97;1.40;;;;;;;;;;5118725;28;20241;-59
2022/08/10 05:09:55;;;;;;;2.37;1.73;;;;;;;;;;5120351;27;20237;-59
2022/08/10 05:12:32;;;;;;;1.67;1.53;;;;;;;;;;5107750;28;20205;-59
2022/08/10 05:15:04;;;;;;;1.80;1.70;;;;;;;;;;5120268;27;20705;-59
2022/08/10 05:17:33;;;;;;;2.03;1.27;;;;;;;;;;5120199;28;20213;-59
2022/08/10 05:20:01;;;;;;;1.53;1.43;;;;;;;;;;5120518;28;20234;-59
2022/08/10 05:22:37;;;;;;;1.80;1.50;;;;;;;;;;5120510;28;20206;-59
2022/08/10 05:25:08;;;;;;;3.00;1.67;;;;;;;;;;5119327;28;20238;-59
2022/08/10 05:27:37;;;;;;;1.70;1.40;;;;;;;;;;5119744;28;20569;-59
2022/08/10 05:30:05;;;;;;;1.80;1.70;;;;;;;;;;5120360;28;20205;-60
2022/08/10 05:32:34;;;;;;;3.07;1.67;;;;;;;;;;5120177;28;20213;-60
2022/08/10 05:35:22;;;;;;;1.23;1.23;;;;;;;;;;5119729;28;20275;-59
2022/08/10 05:37:51;;;;;;;3.53;1.77;;;;;;;;;;5115229;28;20251;-60
2022/08/10 05:40:41;;;;;;;3.23;1.70;;;;;;;;;;5099342;28;20218;-60
2022/08/10 05:43:14;;;;;;;1.57;1.47;;;;;;;;;;5099299;28;20702;-60
2022/08/10 05:45:43;;;;;;;5.00;1.90;;;;;;;;;;5099185;28;20230;-60
2022/08/10 05:48:31;;;;;;;2.27;1.70;;;;;;;;;;5099439;28;20240;-60
2022/08/10 05:51:20;;;;;;;2.00;1.90;;;;;;;;;;5106033;28;20278;-59
2022/08/10 05:53:48;;;;;;;1.70;1.60;;;;;;;;;;5116751;28;21569;-61
2022/08/10 05:56:33;;;;;;;1.83;1.63;;;;;;;;;;5117523;28;20650;-60
2022/08/10 05:59:22;;;;;;;3.17;1.57;;;;;;;;;;5115053;28;20202;-60
2022/08/10 06:02:11;;;;;;;1.33;1.33;;;;;;;;;;5118161;28;20222;-59
2022/08/10 06:05:01;;;;;;;2.00;1.90;;;;;;;;;;5116025;28;20317;-59
2022/08/10 06:07:30;;;;;;;7.80;5.70;;;;;;;;;;5118867;28;20261;-59
2022/08/10 06:09:58;;;;;;;1.90;1.50;;;;;;;;;;5116167;27;20243;-59
2022/08/10 06:12:29;;;;;;;2.10;1.40;;;;;;;;;;5116946;28;20247;-59
2022/08/10 06:15:02;;;;;;;4.03;1.50;;;;;;;;;;5114928;28;20211;-59
2022/08/10 06:17:32;;;;;;;4.57;1.90;;;;;;;;;;5118625;28;20203;-59
2022/08/10 06:20:01;;;;;;;5.57;1.93;;;;;;;;;;5117923;28;20216;-59
2022/08/10 06:22:31;;;;;;;5.63;2.00;;;;;;;;;;5114291;28;20299;-59
2022/08/10 06:25:00;;;;;;;1.73;1.43;;;;;;;;;;5117021;28;20281;-59
2022/08/10 06:27:50;;;;;;;2.43;1.80;;;;;;;;;;5115892;28;20237;-59
2022/08/10 06:30:19;;;;;;;1.87;1.70;;;;;;;;;;5116837;28;20241;-59
2022/08/10 06:32:48;;;;;;;2.07;1.40;;;;;;;;;;5118744;28;20206;-59
2022/08/10 06:35:16;;;;;;;3.87;1.83;;;;;;;;;;5114224;28;20202;-59
2022/08/10 06:37:45;;;;;;;3.10;1.50;;;;;;;;;;5104806;28;20229;-60
2022/08/10 06:40:18;;;;;;;1.70;1.60;;;;;;;;;;5112010;28;20206;-60
2022/08/10 06:42:48;;;;;;;1.50;1.40;;;;;;;;;;5097590;28;20206;-62
2022/08/10 06:45:19;;;;;;;2.00;1.50;;;;;;;;;;5118416;28;20244;-63
2022/08/10 06:47:50;;;;;;;2.70;1.40;;;;;;;;;;5107810;28;20209;-63
2022/08/10 06:50:19;;;;;;;2.87;1.60;;;;;;;;;;5117556;28;20309;-63
2022/08/10 06:53:11;;;;;;;1.90;1.70;;;;;;;;;;5118388;28;20296;-63
2022/08/10 06:55:40;;;;;;;1.90;1.50;;;;;;;;;;5117699;28;20681;-63
2022/08/10 06:58:25;;;;;;;3.53;1.33;;;;;;;;;;5116551;28;20242;-63
2022/08/10 07:00:55;;;;;;;2.90;1.40;;;;;;;;;;5116405;28;20275;-62
2022/08/10 07:03:26;;;;;;;2.80;1.97;;;;;;;;;;5116378;28;20246;-63
2022/08/10 07:05:54;;;;;;;2.10;1.70;;;;;;;;;;5116188;28;20711;-60
2022/08/10 07:08:23;;;;;;;3.63;1.70;;;;;;;;;;5116436;28;20753;-60
2022/08/10 07:10:51;;;;;;;5.03;2.60;;;;;;;;;;5116382;28;20206;-62
2022/08/10 07:13:19;;;;;;;3.67;1.60;;;;;;;;;;5118409;28;20262;-62
2022/08/10 07:16:11;;;;;;;2.07;1.83;;;;;;;;;;5118349;28;20213;-62
2022/08/10 07:18:39;;;;;;;2.10;1.50;;;;;;;;;;5108713;28;20209;-62
2022/08/10 07:21:08;;;;;;;3.13;1.80;;;;;;;;;;5111180;28;20206;-62
2022/08/10 07:23:36;;;;;;;1.73;1.37;;;;;;;;;;5110598;28;20258;-61
2022/08/10 07:26:25;;;;;;;1.60;1.50;;;;;;;;;;5097096;28;20226;-61
2022/08/10 07:28:53;;;;;;;1.50;1.40;;;;;;;;;;5097854;28;20201;-60
2022/08/10 07:31:23;;;;;;;1.70;1.53;;;;;;;;;;5097548;28;20206;-61
2022/08/10 07:34:14;;;;;;;1.63;1.53;;;;;;;;;;5097597;28;20314;-60
2022/08/10 07:36:58;;;;;;;3.17;1.80;;;;;;;;;;5106046;28;20204;-61
2022/08/10 07:39:28;;;;;;;2.40;1.70;;;;;;;;;;5118007;28;20209;-61
2022/08/10 07:42:18;;;;;;;2.00;1.37;;;;;;;;;;5117461;28;20204;-62
2022/08/10 07:44:49;;;;;;;1.60;1.50;;;;;;;;;;5118448;28;20226;-61
2022/08/10 07:47:22;;;;;;;3.00;1.90;;;;;;;;;;5117879;28;20216;-61
2022/08/10 07:50:12;;;;;;;2.73;1.57;;;;;;;;;;5118443;28;20273;-61
2022/08/10 07:52:40;;;;;;;3.87;1.50;;;;;;;;;;5118090;28;20244;-60
2022/08/10 07:55:12;;;;;;;2.57;1.60;;;;;;;;;;5117937;28;20258;-61
2022/08/10 07:57:42;;;;;;;6.27;1.90;;;;;;;;;;5117552;28;20721;-60
2022/08/10 08:00:11;;;;;;;3.57;1.60;;;;;;;;;;5117872;28;20212;-60
2022/08/10 08:02:44;;;;;;;1.60;1.50;;;;;;;;;;5120804;28;20287;-60
2022/08/10 08:05:14;;;;;;;3.13;1.53;;;;;;;;;;5116752;28;20227;-60
2022/08/10 08:08:02;;;;;;;2.33;1.90;;;;;;;;;;5121722;28;20210;-60
2022/08/10 08:10:30;;;;;;;2.83;1.50;;;;;;;;;;5121449;28;20244;-60
2022/08/10 08:13:00;;;;;;;2.17;1.60;;;;;;;;;;5121932;28;20251;-60
2022/08/10 08:15:28;;;;;;;1.70;1.60;;;;;;;;;;5122029;28;20567;-60
2022/08/10 08:18:19;;;;;;;2.00;1.83;;;;;;;;;;5122001;28;20209;-60
2022/08/10 08:20:53;;;;;;;3.87;1.63;;;;;;;;;;5121801;28;20204;-60
2022/08/10 08:23:22;;;;;;;3.23;1.73;;;;;;;;;;5116327;28;20763;-60
2022/08/10 08:26:10;;;;;;;1.95;1.55;;;;;;;;;;5100414;28;20221;-60
2022/08/10 08:28:49;;;;;;;6.22;1.83;;;;;;;;;;5100817;28;20212;-60
2022/08/10 08:31:18;;;;;;;3.28;1.70;;;;;;;;;;5100818;28;20263;-60
2022/08/10 08:33:47;;;;;;;2.78;2.10;;;;;;;;;;5100851;28;20264;-62
2022/08/10 08:36:17;;;;;;;2.38;1.77;;;;;;;;;;5103477;28;20238;-62
2022/08/10 08:38:46;;;;;;;1.85;1.75;;;;;;;;;;5120858;27;20645;-62
2022/08/10 08:41:21;;;;;;;7.45;1.88;;;;;;;;;;5120781;28;20207;-62
2022/08/10 08:43:56;;;;;;;2.78;1.60;;;;;;;;;;5120929;28;20757;-62
2022/08/10 08:46:31;;;;;;;5.72;1.92;;;;;;;;;;5120907;28;20255;-62
2022/08/10 08:49:16;;;;;;;2.47;1.70;;;;;;;;;;5120812;28;20563;-62
2022/08/10 08:52:25;;;;;;;;;;;;;;;;;;;;;
2022/08/10 08:54:59;;;;;;;5.18;1.80;;;;;;;;;;5120995;28;20246;-62
2022/08/10 08:57:29;;;;;;;3.25;1.52;;;;;;;;;;5120545;28;20208;-61
2022/08/10 09:00:19;;;;;;;3.22;1.30;;;;;;;;;;5120636;28;20293;-62
2022/08/10 09:02:54;;;;;;;3.42;1.58;;;;;;;;;;5120860;28;20237;-61
2022/08/10 09:09:07;;;;;;;2.92;1.75;;;;;;;;;;5112784;28;20758;-61
2022/08/10 09:11:41;;;;;;;1.50;1.40;;;;;;;;;;5120097;28;20237;-60
2022/08/10 09:14:14;;;;;;;1.85;1.58;;;;;;;;;;5119641;28;20266;-61
2022/08/10 09:16:51;;;;;;;2.13;1.40;;;;;;;;;;5120433;28;20200;-61
2022/08/10 09:19:25;;;;;;;1.63;1.52;;;;;;;;;;5120157;28;20228;-61
2022/08/10 09:22:05;;;;;;;1.45;1.35;;;;;;;;;;5120506;27;20208;-60
2022/08/10 09:24:50;;;;;;;1.38;1.38;;;;;;;;;;5113776;28;20229;-61
2022/08/10 09:27:20;;;;;;;1.40;1.30;;;;;;;;;;5099110;28;20221;-61
2022/08/10 09:29:52;;;;;;;3.40;1.42;;;;;;;;;;5099927;28;20244;-61
2022/08/10 09:32:26;;;;;;;1.38;1.27;;;;;;;;;;5099863;28;20237;-61
2022/08/10 09:35:18;;;;;;;1.65;1.50;;;;;;;;;;5099748;28;20288;-61
2022/08/10 09:38:11;;;;;;;1.65;1.50;;;;;;;;;;5117885;28;20196;-61
2022/08/10 09:40:46;;;;;;;3.92;1.70;;;;;;;;;;5113889;28;20240;-61
2022/08/10 09:43:34;;;;;;;3.10;1.52;;;;;;;;;;5120025;28;20228;-61
2022/08/10 09:46:07;;;;;;;2.45;1.33;;;;;;;;;;5119890;28;20259;-61
2022/08/10 09:48:42;;;;;;;2.05;1.40;;;;;;;;;;5119833;28;20204;-60
2022/08/10 09:51:14;;;;;;;2.90;1.50;;;;;;;;;;5119534;28;20251;-61
2022/08/10 09:54:20;;;;;;;3.35;1.60;;;;;;;;;;5119410;28;20221;-60
2022/08/10 09:56:53;;;;;;;1.48;1.30;;;;;;;;;;5119364;28;20200;-60
2022/08/10 09:59:47;;;;;;;2.55;1.50;;;;;;;;;;5119650;28;20279;-61
2022/08/10 10:02:34;;;;;;;5.00;1.70;;;;;;;;;;5119376;28;20205;-61
2022/08/10 10:05:12;;;;;;;2.42;1.30;;;;;;;;;;5119410;28;20252;-61
2022/08/10 10:07:45;;;;;;;1.70;1.60;;;;;;;;;;5119550;28;20315;-61
2022/08/10 10:10:17;;;;;;;4.07;1.25;;;;;;;;;;5119522;28;20205;-60
2022/08/10 10:12:51;;;;;;;2.22;1.10;;;;;;;;;;5119192;28;20236;-60
2022/08/10 10:15:24;;;;;;;4.68;1.58;;;;;;;;;;5119540;28;20239;-61
2022/08/10 10:18:11;;;;;;;1.63;1.45;;;;;;;;;;5119226;28;20204;-60
2022/08/10 10:20:40;;;;;;;4.25;1.52;;;;;;;;;;5119281;28;20243;-61
2022/08/10 10:23:13;;;;;;;5.05;1.50;;;;;;;;;;5115665;28;20269;-61
2022/08/10 10:25:44;;;;;;;4.35;1.40;;;;;;;;;;5098087;28;20680;-61
2022/08/10 10:28:25;;;;;;;3.55;1.50;;;;;;;;;;5098629;28;20228;-60
2022/08/10 10:31:18;;;;;;;3.58;1.75;;;;;;;;;;5098673;28;20205;-61
2022/08/10 10:33:51;;;;;;;2.55;1.55;;;;;;;;;;5097472;28;20244;-61
2022/08/10 10:36:20;;;;;;;2.97;1.60;;;;;;;;;;5108110;28;20228;-61
2022/08/10 10:38:49;;;;;;;5.00;1.90;;;;;;;;;;5098842;28;20229;-61
2022/08/10 10:41:24;;;;;;;3.67;1.35;;;;;;;;;;5098146;28;20240;-61
2022/08/10 10:43:59;;;;;;;3.55;1.90;;;;;;;;;;5098016;28;20229;-60
2022/08/10 10:46:36;;;;;;;2.75;1.52;;;;;;;;;;5098277;28;20270;-60
2022/08/10 10:49:10;;;;;;;1.90;1.75;;;;;;;;;;5098061;28;20209;-63
2022/08/10 10:51:41;;;;;;;2.45;1.50;;;;;;;;;;5097794;28;20260;-62
2022/08/10 10:54:11;;;;;;;3.15;1.60;;;;;;;;;;5098269;28;20225;-62
2022/08/10 10:56:49;;;;;;;2.00;1.10;;;;;;;;;;5097544;28;20626;-63
2022/08/10 10:59:21;;;;;;;2.28;1.90;;;;;;;;;;5098235;28;20205;-63
2022/08/10 11:02:17;;;;;;;2.40;1.52;;;;;;;;;;5097954;28;20211;-62
2022/08/10 11:04:46;;;;;;;3.22;1.55;;;;;;;;;;5097201;28;20303;-62
2022/08/10 11:07:17;;;;;;;2.28;1.60;;;;;;;;;;5097718;28;20229;-62
2022/08/10 11:09:54;;;;;;;3.47;1.58;;;;;;;;;;5103907;28;20246;-62
2022/08/10 11:12:43;;;;;;;1.92;1.70;;;;;;;;;;5116056;28;20212;-62
2022/08/10 11:15:18;;;;;;;1.70;1.60;;;;;;;;;;5116380;28;20235;-63
2022/08/10 11:17:48;;;;;;;1.30;1.20;;;;;;;;;;5116560;28;20656;-62
2022/08/10 11:20:22;;;;;;;1.60;1.50;;;;;;;;;;5117066;28;20239;-63
2022/08/10 11:22:53;;;;;;;3.55;1.67;;;;;;;;;;5116660;28;20204;-63
2022/08/10 11:25:25;;;;;;;2.58;1.55;;;;;;;;;;5096947;28;20647;-63
2022/08/10 11:27:55;;;;;;;4.05;1.27;;;;;;;;;;5097691;28;20267;-63
2022/08/10 11:30:29;;;;;;;2.60;1.58;;;;;;;;;;5097926;28;20237;-63
2022/08/10 11:33:03;;;;;;;1.17;1.17;;;;;;;;;;5097930;28;20204;-63
2022/08/10 11:35:35;;;;;;;1.65;1.42;;;;;;;;;;5098048;28;20207;-63
2022/08/10 11:38:07;;;;;;;3.17;1.63;;;;;;;;;;5119222;28;20224;-63
2022/08/10 11:41:00;;;;;;;1.33;1.10;;;;;;;;;;5121939;28;20220;-62
2022/08/10 11:43:51;;;;;;;3.15;1.40;;;;;;;;;;5121950;28;20703;-63
2022/08/10 11:46:23;;;;;;;1.63;1.48;;;;;;;;;;5122254;28;20208;-62
2022/08/10 11:49:02;;;;;;;2.42;1.20;;;;;;;;;;5119405;28;20216;-65
2022/08/10 11:51:35;;;;;;;1.40;1.30;;;;;;;;;;5116607;28;20262;-63
2022/08/10 11:54:05;;;;;;;1.95;1.63;;;;;;;;;;5121959;28;20228;-64
2022/08/10 11:56:38;;;;;;;3.60;1.50;;;;;;;;;;5121760;28;20215;-65
2022/08/10 12:01:54;;;;;;;1.77;1.50;;;;;;;;;;5121732;28;20240;-64
2022/08/10 12:04:23;;;;;;;2.55;1.40;;;;;;;;;;5121728;28;20714;-63
2022/08/10 12:06:52;;;;;;;1.88;1.50;;;;;;;;;;5121506;28;20661;-64
2022/08/10 12:09:23;;;;;;;1.52;1.13;;;;;;;;;;5121683;28;20568;-63
2022/08/10 12:12:12;;;;;;;32.90;25.20;;;;;;;;;;5121499;28;20215;-61
2022/08/10 12:14:43;;;;;;;1.83;1.73;;;;;;;;;;5121355;28;20250;-61
2022/08/10 12:17:16;;;;;;;3.10;1.27;;;;;;;;;;5120605;28;20196;-62
2022/08/10 12:19:45;;;;;;;4.38;1.23;;;;;;;;;;5106122;28;20233;-62
2022/08/10 12:22:31;;;;;;;1.10;1.10;;;;;;;;;;5101058;28;20695;-62
2022/08/10 12:25:01;;;;;;;1.10;1.10;;;;;;;;;;5120661;28;20229;-62
2022/08/10 12:27:31;;;;;;;2.35;2.03;;;;;;;;;;5120850;28;20248;-62
2022/08/10 12:30:03;;;;;;;1.90;1.40;;;;;;;;;;5121513;28;20208;-62
2022/08/10 12:32:40;;;;;;;1.60;1.50;;;;;;;;;;5121336;28;20695;-62
2022/08/10 12:35:13;;;;;;;1.10;1.10;;;;;;;;;;5121053;28;20256;-62
2022/08/10 12:37:56;;;;;;;1.75;1.65;;;;;;;;;;5118026;28;20721;-62
2022/08/10 12:40:27;;;;;;;2.05;1.20;;;;;;;;;;5100187;28;20570;-62
2022/08/10 12:43:08;;;;;;;3.00;1.48;;;;;;;;;;5100657;28;20287;-62
2022/08/10 12:45:59;;;;;;;1.10;1.10;;;;;;;;;;5100648;28;20205;-62
2022/08/10 12:48:36;;;;;;;1.83;1.20;;;;;;;;;;5099277;28;20232;-62
2022/08/10 12:51:05;;;;;;;1.13;1.02;;;;;;;;;;5100276;28;20716;-63
2022/08/10 12:53:40;;;;;;;1.23;1.13;;;;;;;;;;5100827;28;20229;-64
2022/08/10 12:56:08;;;;;;;1.75;1.48;;;;;;;;;;5120628;28;20245;-63
2022/08/10 12:58:40;;;;;;;1.40;0.98;;;;;;;;;;5119629;28;20197;-64
2022/08/10 13:01:28;;;;;;;1.60;1.50;;;;;;;;;;5109664;28;20208;-63
2022/08/10 13:04:24;;;;;;;1.77;1.35;;;;;;;;;;5112013;28;20595;-63
2022/08/10 13:06:53;;;;;;;1.42;1.30;;;;;;;;;;5100076;28;20236;-63
2022/08/10 13:09:22;;;;;;;1.20;1.20;;;;;;;;;;5100199;28;20250;-63
2022/08/10 13:11:55;;;;;;;1.13;0.98;;;;;;;;;;5099262;28;20244;-63
2022/08/10 13:14:47;;;;;;;1.38;1.02;;;;;;;;;;5100120;28;20229;-63
2022/08/10 13:17:20;;;;;;;2.88;2.15;;;;;;;;;;5100121;28;20233;-63
2022/08/10 13:19:51;;;;;;;1.42;1.13;;;;;;;;;;5115958;28;20204;-63
2022/08/10 13:22:25;;;;;;;1.10;1.05;;;;;;;;;;5120316;28;20239;-63
2022/08/10 13:24:54;;;;;;;0.98;0.98;;;;;;;;;;5102745;27;20235;-63
2022/08/10 13:27:26;;;;;;;2.88;1.27;;;;;;;;;;5099372;28;20202;-63
2022/08/10 13:30:14;;;;;;;1.40;1.30;;;;;;;;;;5099803;28;20209;-63
2022/08/10 13:32:47;;;;;;;2.28;1.45;;;;;;;;;;5099478;28;20209;-63
2022/08/10 13:35:18;;;;;;;1.15;0.93;;;;;;;;;;5099616;28;20637;-63
2022/08/10 13:37:47;;;;;;;2.00;1.05;;;;;;;;;;5114777;28;20311;-63
2022/08/10 13:40:16;;;;;;;2.22;1.27;;;;;;;;;;5119930;28;20205;-63
2022/08/10 13:42:44;;;;;;;1.27;1.20;;;;;;;;;;5120129;28;20209;-63
2022/08/10 13:45:14;;;;;;;1.20;1.20;;;;;;;;;;5119848;28;20633;-64
2022/08/10 13:47:43;;;;;;;2.67;1.42;;;;;;;;;;5119864;28;20232;-64
2022/08/10 13:50:22;;;;;;;1.40;1.30;;;;;;;;;;5119897;28;20232;-63
2022/08/10 13:53:02;;;;;;;1.52;1.17;;;;;;;;;;5119660;28;20257;-63
2022/08/10 13:55:30;;;;;;;2.22;1.40;;;;;;;;;;5119460;28;20209;-63
2022/08/10 13:58:22;;;;;;;1.10;1.10;;;;;;;;;;5119701;28;20680;-64
2022/08/10 14:00:51;;;;;;;158.07;96.53;;;;;;;;;;5119391;28;20205;-63
2022/08/10 14:03:20;;;;;;;4.57;4.15;;;;;;;;;;5119408;28;20734;-62
2022/08/10 14:05:52;;;;;;;2.03;1.70;;;;;;;;;;5119353;28;20619;-63
2022/08/10 14:08:21;;;;;;;1.67;1.58;;;;;;;;;;5119215;28;20568;-63
2022/08/10 14:10:50;;;;;;;1.80;1.40;;;;;;;;;;5118937;28;20208;-63
2022/08/10 14:13:40;;;;;;;1.40;1.30;;;;;;;;;;5116050;28;20691;-63
2022/08/10 14:16:10;;;;;;;1.60;1.40;;;;;;;;;;5117804;28;20247;-63
2022/08/10 14:18:40;;;;;;;2.50;1.42;;;;;;;;;;5115568;28;20648;-63
2022/08/10 14:21:10;;;;;;;1.67;1.05;;;;;;;;;;5117837;28;20193;-62
2022/08/10 14:23:42;;;;;;;2.65;1.55;;;;;;;;;;5111481;28;20282;-62
2022/08/10 14:26:21;;;;;;;1.70;1.60;;;;;;;;;;5098418;28;20212;-62
2022/08/10 14:28:52;;;;;;;3.22;1.52;;;;;;;;;;5098826;28;20225;-63
2022/08/10 14:31:23;;;;;;;1.88;1.65;;;;;;;;;;5098475;28;20209;-63
2022/08/10 14:33:54;;;;;;;3.00;1.50;;;;;;;;;;5098725;28;20239;-62
2022/08/10 14:36:29;;;;;;;2.25;1.48;;;;;;;;;;5102008;28;20200;-63
2022/08/10 14:38:58;;;;;;;1.20;1.20;;;;;;;;;;5118867;28;20658;-63
2022/08/10 14:41:28;;;;;;;1.20;1.10;;;;;;;;;;5114903;28;20337;-63
2022/08/10 14:44:17;;;;;;;1.50;1.38;;;;;;;;;;5117841;28;20228;-63
2022/08/10 14:46:46;;;;;;;2.20;1.27;;;;;;;;;;5113546;27;20236;-62
2022/08/10 14:49:19;;;;;;;1.98;1.60;;;;;;;;;;5113710;28;20224;-63
2022/08/10 14:51:58;;;;;;;2.13;1.40;;;;;;;;;;5110987;28;20208;-63
2022/08/10 14:54:27;;;;;;;1.30;1.30;;;;;;;;;;5109416;28;20265;-63
2022/08/10 14:57:02;;;;;;;1.80;1.70;;;;;;;;;;5115352;28;20200;-63
2022/08/10 14:59:39;;;;;;;1.45;1.35;;;;;;;;;;5115768;28;20751;-63
2022/08/10 15:02:27;;;;;;;1.55;1.45;;;;;;;;;;5113265;28;20204;-63
2022/08/10 15:05:08;;;;;;;1.98;1.58;;;;;;;;;;5116279;28;20224;-63
2022/08/10 15:07:38;;;;;;;3.15;1.88;;;;;;;;;;5117047;28;20687;-63
2022/08/10 15:10:07;;;;;;;4.35;1.52;;;;;;;;;;5107259;28;20273;-60
2022/08/10 15:12:36;;;;;;;2.88;1.70;;;;;;;;;;5095188;28;20545;-61
2022/08/10 15:15:07;;;;;;;1.65;1.55;;;;;;;;;;5096314;28;20233;-61
2022/08/10 15:17:38;;;;;;;2.55;1.27;;;;;;;;;;5109487;28;20200;-63
2022/08/10 15:20:13;;;;;;;1.90;1.40;;;;;;;;;;5096332;28;20306;-63
2022/08/10 15:22:46;;;;;;;1.55;1.38;;;;;;;;;;5096543;28;20291;-63
2022/08/10 15:25:18;;;;;;;2.85;1.25;;;;;;;;;;5116174;28;20248;-63
2022/08/10 15:27:54;;;;;;;1.73;1.40;;;;;;;;;;5114079;28;20624;-63
2022/08/10 15:30:25;;;;;;;1.35;1.25;;;;;;;;;;5117841;28;20705;-63
2022/08/10 15:38:56;;;;;;;1.10;1.00;;;;;;;;;;5117692;28;20567;-63